sensor_id;sensor_type;location;lat;lon;timestamp;P1;durP1;ratioP1;P2;durP2;ratioP2
35897;SDS011;21997;47.118;15.346;2022-08-21T00:01:30;0.60;;;0.60;;
35897;SDS011;21997;47.118;15.346;2022-08-21T00:03:55;1.23;;;0.83;;
35897;SDS011;21997;47.118;15.346;2022-08-21T00:06:23;1.90;;;0.80;;
35897;SDS011;21997;47.118;15.346;2022-08-21T00:08:49;2.67;;;0.47;;
35897;SDS011;21997;47.118;15.346;2022-08-21T00:11:16;0.60;;;0.60;;
35897;SDS011;21997;47.118;15.346;2022-08-21T00:13:42;2.40;;;0.53;;
35897;SDS011;21997;47.118;15.346;2022-08-21T00:16:07;0.70;;;0.70;;
35897;SDS011;21997;47.118;15.346;2022-08-21T00:18:33;2.53;;;0.67;;
35897;SDS011;21997;47.118;15.346;2022-08-21T00:21:01;1.70;;;0.57;;
35897;SDS011;21997;47.118;15.346;2022-08-21T00:23:29;0.80;;;0.70;;
35897;SDS011;21997;47.118;15.346;2022-08-21T00:25:55;2.50;;;0.60;;
35897;SDS011;21997;47.118;15.346;2022-08-21T00:28:33;0.97;;;0.50;;
35897;SDS011;21997;47.118;15.346;2022-08-21T00:31:07;1.63;;;0.77;;
35897;SDS011;21997;47.118;15.346;2022-08-21T00:33:32;0.60;;;0.60;;
35897;SDS011;21997;47.118;15.346;2022-08-21T00:36:04;1.97;;;0.70;;
35897;SDS011;21997;47.118;15.346;2022-08-21T00:38:30;0.83;;;0.80;;
35897;SDS011;21997;47.118;15.346;2022-08-21T00:40:59;0.70;;;0.70;;
35897;SDS011;21997;47.118;15.346;2022-08-21T00:43:29;1.50;;;0.60;;
35897;SDS011;21997;47.118;15.346;2022-08-21T00:45:59;0.70;;;0.70;;
35897;SDS011;21997;47.118;15.346;2022-08-21T00:48:43;0.77;;;0.70;;
35897;SDS011;21997;47.118;15.346;2022-08-21T00:51:47;1.77;;;0.60;;
35897;SDS011;21997;47.118;15.346;2022-08-21T00:54:17;1.37;;;0.60;;
35897;SDS011;21997;47.118;15.346;2022-08-21T00:56:44;1.20;;;0.80;;
35897;SDS011;21997;47.118;15.346;2022-08-21T00:59:20;1.73;;;0.80;;
35897;SDS011;21997;47.118;15.346;2022-08-21T01:01:47;0.77;;;0.70;;
35897;SDS011;21997;47.118;15.346;2022-08-21T01:04:17;1.77;;;0.77;;
35897;SDS011;21997;47.118;15.346;2022-08-21T01:06:46;1.13;;;1.00;;
35897;SDS011;21997;47.118;15.346;2022-08-21T01:09:12;0.70;;;0.70;;
35897;SDS011;21997;47.118;15.346;2022-08-21T01:11:41;0.77;;;0.77;;
35897;SDS011;21997;47.118;15.346;2022-08-21T01:14:24;1.80;;;0.50;;
35897;SDS011;21997;47.118;15.346;2022-08-21T01:16:52;1.03;;;0.80;;
35897;SDS011;21997;47.118;15.346;2022-08-21T01:19:23;3.03;;;1.07;;
35897;SDS011;21997;47.118;15.346;2022-08-21T01:22:10;1.10;;;0.83;;
35897;SDS011;21997;47.118;15.346;2022-08-21T01:24:38;0.80;;;0.80;;
35897;SDS011;21997;47.118;15.346;2022-08-21T01:27:04;3.57;;;0.90;;
35897;SDS011;21997;47.118;15.346;2022-08-21T01:29:47;0.73;;;0.73;;
35897;SDS011;21997;47.118;15.346;2022-08-21T01:32:19;3.03;;;0.80;;
35897;SDS011;21997;47.118;15.346;2022-08-21T01:34:48;0.70;;;0.70;;
35897;SDS011;21997;47.118;15.346;2022-08-21T01:37:14;2.00;;;0.90;;
35897;SDS011;21997;47.118;15.346;2022-08-21T01:39:42;0.80;;;0.80;;
35897;SDS011;21997;47.118;15.346;2022-08-21T01:42:08;1.80;;;0.70;;
35897;SDS011;21997;47.118;15.346;2022-08-21T01:44:34;1.70;;;0.73;;
35897;SDS011;21997;47.118;15.346;2022-08-21T01:47:07;0.63;;;0.63;;
35897;SDS011;21997;47.118;15.346;2022-08-21T01:49:35;2.47;;;1.10;;
35897;SDS011;21997;47.118;15.346;2022-08-21T01:52:09;1.23;;;0.90;;
35897;SDS011;21997;47.118;15.346;2022-08-21T01:54:49;2.80;;;0.83;;
35897;SDS011;21997;47.118;15.346;2022-08-21T01:57:56;1.00;;;0.90;;
35897;SDS011;21997;47.118;15.346;2022-08-21T02:00:58;2.00;;;0.90;;
35897;SDS011;21997;47.118;15.346;2022-08-21T02:07:06;2.27;;;0.90;;
35897;SDS011;21997;47.118;15.346;2022-08-21T02:09:37;1.30;;;1.13;;
35897;SDS011;21997;47.118;15.346;2022-08-21T02:12:10;1.40;;;1.13;;
35897;SDS011;21997;47.118;15.346;2022-08-21T02:14:36;0.70;;;0.70;;
35897;SDS011;21997;47.118;15.346;2022-08-21T02:17:02;1.37;;;1.00;;
35897;SDS011;21997;47.118;15.346;2022-08-21T02:19:30;1.10;;;1.00;;
35897;SDS011;21997;47.118;15.346;2022-08-21T02:22:01;0.90;;;0.90;;
35897;SDS011;21997;47.118;15.346;2022-08-21T02:24:34;1.83;;;1.10;;
35897;SDS011;21997;47.118;15.346;2022-08-21T02:27:03;0.87;;;0.83;;
35897;SDS011;21997;47.118;15.346;2022-08-21T02:29:35;1.37;;;1.00;;
35897;SDS011;21997;47.118;15.346;2022-08-21T02:32:53;0.90;;;0.90;;
35897;SDS011;21997;47.118;15.346;2022-08-21T02:35:53;1.10;;;1.00;;
35897;SDS011;21997;47.118;15.346;2022-08-21T02:38:53;1.13;;;1.03;;
35897;SDS011;21997;47.118;15.346;2022-08-21T02:41:28;1.57;;;1.07;;
35897;SDS011;21997;47.118;15.346;2022-08-21T02:44:04;1.83;;;1.20;;
35897;SDS011;21997;47.118;15.346;2022-08-21T02:46:51;1.10;;;1.00;;
35897;SDS011;21997;47.118;15.346;2022-08-21T02:52:54;1.93;;;0.80;;
35897;SDS011;21997;47.118;15.346;2022-08-21T02:55:51;1.20;;;1.10;;
35897;SDS011;21997;47.118;15.346;2022-08-21T03:05:05;1.03;;;1.00;;
35897;SDS011;21997;47.118;15.346;2022-08-21T03:08:21;1.37;;;1.20;;
35897;SDS011;21997;47.118;15.346;2022-08-21T03:11:11;1.17;;;1.07;;
35897;SDS011;21997;47.118;15.346;2022-08-21T03:14:05;1.63;;;1.53;;
35897;SDS011;21997;47.118;15.346;2022-08-21T03:16:30;1.23;;;1.13;;
35897;SDS011;21997;47.118;15.346;2022-08-21T03:19:18;1.30;;;1.20;;
35897;SDS011;21997;47.118;15.346;2022-08-21T03:25:41;2.30;;;1.40;;
35897;SDS011;21997;47.118;15.346;2022-08-21T03:28:31;1.23;;;1.10;;
35897;SDS011;21997;47.118;15.346;2022-08-21T03:34:50;2.03;;;1.20;;
35897;SDS011;21997;47.118;15.346;2022-08-21T03:41:54;0.93;;;0.87;;
35897;SDS011;21997;47.118;15.346;2022-08-21T03:44:41;1.43;;;1.27;;
35897;SDS011;21997;47.118;15.346;2022-08-21T03:54:48;3.03;;;1.23;;
35897;SDS011;21997;47.118;15.346;2022-08-21T03:58:03;1.43;;;1.33;;
35897;SDS011;21997;47.118;15.346;2022-08-21T04:03:59;1.20;;;1.10;;
35897;SDS011;21997;47.118;15.346;2022-08-21T04:06:24;2.50;;;1.30;;
35897;SDS011;21997;47.118;15.346;2022-08-21T04:08:51;1.23;;;1.13;;
35897;SDS011;21997;47.118;15.346;2022-08-21T04:11:18;1.80;;;1.70;;
35897;SDS011;21997;47.118;15.346;2022-08-21T04:13:43;1.77;;;1.10;;
35897;SDS011;21997;47.118;15.346;2022-08-21T04:16:09;1.53;;;1.30;;
35897;SDS011;21997;47.118;15.346;2022-08-21T04:18:35;1.27;;;1.17;;
35897;SDS011;21997;47.118;15.346;2022-08-21T04:21:01;1.27;;;1.13;;
35897;SDS011;21997;47.118;15.346;2022-08-21T04:23:27;1.50;;;1.40;;
35897;SDS011;21997;47.118;15.346;2022-08-21T04:25:53;1.90;;;1.57;;
35897;SDS011;21997;47.118;15.346;2022-08-21T04:28:21;1.60;;;1.50;;
35897;SDS011;21997;47.118;15.346;2022-08-21T04:30:47;1.63;;;1.40;;
35897;SDS011;21997;47.118;15.346;2022-08-21T04:33:12;1.87;;;1.77;;
35897;SDS011;21997;47.118;15.346;2022-08-21T04:35:38;3.17;;;1.80;;
35897;SDS011;21997;47.118;15.346;2022-08-21T04:38:04;2.00;;;1.40;;
35897;SDS011;21997;47.118;15.346;2022-08-21T04:40:29;1.40;;;1.30;;
35897;SDS011;21997;47.118;15.346;2022-08-21T04:43:00;1.30;;;1.20;;
35897;SDS011;21997;47.118;15.346;2022-08-21T04:45:28;2.30;;;1.33;;
35897;SDS011;21997;47.118;15.346;2022-08-21T04:47:56;1.90;;;1.53;;
35897;SDS011;21997;47.118;15.346;2022-08-21T04:50:27;1.50;;;1.40;;
35897;SDS011;21997;47.118;15.346;2022-08-21T04:52:55;1.40;;;1.10;;
35897;SDS011;21997;47.118;15.346;2022-08-21T04:55:20;1.77;;;1.60;;
35897;SDS011;21997;47.118;15.346;2022-08-21T04:58:03;1.47;;;1.30;;
35897;SDS011;21997;47.118;15.346;2022-08-21T05:00:30;4.50;;;1.83;;
35897;SDS011;21997;47.118;15.346;2022-08-21T05:02:56;1.77;;;1.50;;
35897;SDS011;21997;47.118;15.346;2022-08-21T05:05:24;2.57;;;1.30;;
35897;SDS011;21997;47.118;15.346;2022-08-21T05:07:49;1.60;;;1.50;;
35897;SDS011;21997;47.118;15.346;2022-08-21T05:10:50;1.73;;;1.63;;
35897;SDS011;21997;47.118;15.346;2022-08-21T05:13:16;2.03;;;1.20;;
35897;SDS011;21997;47.118;15.346;2022-08-21T05:15:41;1.60;;;1.30;;
35897;SDS011;21997;47.118;15.346;2022-08-21T05:18:07;2.33;;;2.07;;
35897;SDS011;21997;47.118;15.346;2022-08-21T05:20:33;3.70;;;1.00;;
35897;SDS011;21997;47.118;15.346;2022-08-21T05:22:59;2.23;;;1.20;;
35897;SDS011;21997;47.118;15.346;2022-08-21T05:25:25;3.47;;;1.63;;
35897;SDS011;21997;47.118;15.346;2022-08-21T05:27:53;1.90;;;1.53;;
35897;SDS011;21997;47.118;15.346;2022-08-21T05:30:57;1.70;;;1.40;;
35897;SDS011;21997;47.118;15.346;2022-08-21T05:33:55;2.77;;;1.57;;
35897;SDS011;21997;47.118;15.346;2022-08-21T05:40:22;2.07;;;1.20;;
35897;SDS011;21997;47.118;15.346;2022-08-21T05:42:52;1.13;;;1.07;;
35897;SDS011;21997;47.118;15.346;2022-08-21T05:45:18;2.00;;;1.30;;
35897;SDS011;21997;47.118;15.346;2022-08-21T05:47:44;2.30;;;1.63;;
35897;SDS011;21997;47.118;15.346;2022-08-21T05:50:09;1.40;;;1.30;;
35897;SDS011;21997;47.118;15.346;2022-08-21T05:52:35;1.40;;;1.20;;
35897;SDS011;21997;47.118;15.346;2022-08-21T05:55:00;1.30;;;1.20;;
35897;SDS011;21997;47.118;15.346;2022-08-21T05:57:26;2.47;;;1.37;;
35897;SDS011;21997;47.118;15.346;2022-08-21T05:59:52;1.30;;;1.20;;
35897;SDS011;21997;47.118;15.346;2022-08-21T06:02:18;1.50;;;1.40;;
35897;SDS011;21997;47.118;15.346;2022-08-21T06:04:44;3.30;;;1.30;;
35897;SDS011;21997;47.118;15.346;2022-08-21T06:07:09;1.60;;;1.27;;
35897;SDS011;21997;47.118;15.346;2022-08-21T06:09:34;1.73;;;1.63;;
35897;SDS011;21997;47.118;15.346;2022-08-21T06:12:04;1.40;;;1.30;;
35897;SDS011;21997;47.118;15.346;2022-08-21T06:14:30;1.47;;;1.20;;
35897;SDS011;21997;47.118;15.346;2022-08-21T06:17:01;1.20;;;1.10;;
35897;SDS011;21997;47.118;15.346;2022-08-21T06:19:28;1.30;;;1.20;;
35897;SDS011;21997;47.118;15.346;2022-08-21T06:21:53;2.50;;;0.97;;
35897;SDS011;21997;47.118;15.346;2022-08-21T06:24:19;2.03;;;0.97;;
35897;SDS011;21997;47.118;15.346;2022-08-21T06:26:45;1.77;;;1.40;;
35897;SDS011;21997;47.118;15.346;2022-08-21T06:29:12;1.10;;;1.00;;
35897;SDS011;21997;47.118;15.346;2022-08-21T06:32:23;1.23;;;1.13;;
35897;SDS011;21997;47.118;15.346;2022-08-21T06:35:26;1.57;;;1.47;;
35897;SDS011;21997;47.118;15.346;2022-08-21T06:38:52;1.97;;;1.40;;
35897;SDS011;21997;47.118;15.346;2022-08-21T07:02:42;2.33;;;1.53;;
35897;SDS011;21997;47.118;15.346;2022-08-21T07:05:59;1.97;;;1.27;;
35897;SDS011;21997;47.118;15.346;2022-08-21T07:08:25;1.70;;;1.60;;
35897;SDS011;21997;47.118;15.346;2022-08-21T07:10:52;2.70;;;1.47;;
35897;SDS011;21997;47.118;15.346;2022-08-21T07:16:08;3.37;;;1.57;;
35897;SDS011;21997;47.118;15.346;2022-08-21T07:18:34;4.30;;;1.60;;
35897;SDS011;21997;47.118;15.346;2022-08-21T07:21:00;1.90;;;1.30;;
35897;SDS011;21997;47.118;15.346;2022-08-21T07:23:30;2.93;;;1.50;;
35897;SDS011;21997;47.118;15.346;2022-08-21T07:25:58;1.20;;;1.10;;
35897;SDS011;21997;47.118;15.346;2022-08-21T07:28:26;1.60;;;1.50;;
35897;SDS011;21997;47.118;15.346;2022-08-21T07:30:53;1.40;;;1.30;;
35897;SDS011;21997;47.118;15.346;2022-08-21T07:33:21;1.33;;;1.10;;
35897;SDS011;21997;47.118;15.346;2022-08-21T07:35:52;2.03;;;1.40;;
35897;SDS011;21997;47.118;15.346;2022-08-21T07:38:25;1.80;;;1.40;;
35897;SDS011;21997;47.118;15.346;2022-08-21T07:41:26;1.80;;;1.30;;
35897;SDS011;21997;47.118;15.346;2022-08-21T07:44:06;1.43;;;1.20;;
35897;SDS011;21997;47.118;15.346;2022-08-21T07:53:04;2.07;;;1.50;;
35897;SDS011;21997;47.118;15.346;2022-08-21T07:55:30;2.83;;;1.73;;
35897;SDS011;21997;47.118;15.346;2022-08-21T07:57:55;1.53;;;1.37;;
35897;SDS011;21997;47.118;15.346;2022-08-21T08:00:22;3.33;;;1.60;;
35897;SDS011;21997;47.118;15.346;2022-08-21T08:09:25;1.43;;;1.33;;
35897;SDS011;21997;47.118;15.346;2022-08-21T08:12:20;1.63;;;1.10;;
35897;SDS011;21997;47.118;15.346;2022-08-21T08:14:56;1.40;;;1.30;;
35897;SDS011;21997;47.118;15.346;2022-08-21T08:17:39;1.53;;;1.43;;
35897;SDS011;21997;47.118;15.346;2022-08-21T08:27:24;1.10;;;1.00;;
35897;SDS011;21997;47.118;15.346;2022-08-21T08:29:49;1.43;;;1.13;;
35897;SDS011;21997;47.118;15.346;2022-08-21T08:32:15;2.17;;;1.00;;
35897;SDS011;21997;47.118;15.346;2022-08-21T08:34:40;1.47;;;1.17;;
35897;SDS011;21997;47.118;15.346;2022-08-21T08:37:09;1.87;;;1.10;;
35897;SDS011;21997;47.118;15.346;2022-08-21T08:39:35;1.50;;;1.30;;
35897;SDS011;21997;47.118;15.346;2022-08-21T08:42:18;0.83;;;0.80;;
35897;SDS011;21997;47.118;15.346;2022-08-21T08:45:13;0.80;;;0.80;;
35897;SDS011;21997;47.118;15.346;2022-08-21T08:48:12;0.80;;;0.80;;
35897;SDS011;21997;47.118;15.346;2022-08-21T08:50:57;1.10;;;0.90;;
35897;SDS011;21997;47.118;15.346;2022-08-21T08:56:00;1.97;;;0.97;;
35897;SDS011;21997;47.118;15.346;2022-08-21T08:58:38;1.20;;;1.10;;
35897;SDS011;21997;47.118;15.346;2022-08-21T09:01:17;1.37;;;1.27;;
35897;SDS011;21997;47.118;15.346;2022-08-21T09:03:44;0.87;;;0.73;;
35897;SDS011;21997;47.118;15.346;2022-08-21T09:18:20;1.30;;;1.10;;
35897;SDS011;21997;47.118;15.346;2022-08-21T09:21:17;1.67;;;1.10;;
35897;SDS011;21997;47.118;15.346;2022-08-21T09:26:31;1.27;;;1.17;;
35897;SDS011;21997;47.118;15.346;2022-08-21T09:29:27;2.27;;;1.03;;
35897;SDS011;21997;47.118;15.346;2022-08-21T09:31:55;2.97;;;1.40;;
35897;SDS011;21997;47.118;15.346;2022-08-21T09:34:27;1.33;;;1.10;;
35897;SDS011;21997;47.118;15.346;2022-08-21T09:36:55;3.03;;;1.20;;
35897;SDS011;21997;47.118;15.346;2022-08-21T09:39:25;3.60;;;1.43;;
35897;SDS011;21997;47.118;15.346;2022-08-21T09:42:00;5.00;;;1.80;;
35897;SDS011;21997;47.118;15.346;2022-08-21T09:44:29;2.07;;;1.33;;
35897;SDS011;21997;47.118;15.346;2022-08-21T09:46:57;2.23;;;1.53;;
35897;SDS011;21997;47.118;15.346;2022-08-21T09:49:29;1.40;;;1.20;;
35897;SDS011;21997;47.118;15.346;2022-08-21T09:51:59;1.60;;;1.17;;
35897;SDS011;21997;47.118;15.346;2022-08-21T09:54:30;1.40;;;1.30;;
35897;SDS011;21997;47.118;15.346;2022-08-21T09:56:58;1.40;;;1.10;;
35897;SDS011;21997;47.118;15.346;2022-08-21T09:59:44;1.20;;;1.10;;
35897;SDS011;21997;47.118;15.346;2022-08-21T10:02:27;1.40;;;1.23;;
35897;SDS011;21997;47.118;15.346;2022-08-21T10:04:55;1.67;;;1.43;;
35897;SDS011;21997;47.118;15.346;2022-08-21T10:07:23;1.40;;;1.30;;
35897;SDS011;21997;47.118;15.346;2022-08-21T10:10:06;3.07;;;1.20;;
35897;SDS011;21997;47.118;15.346;2022-08-21T10:26:42;1.10;;;0.90;;
35897;SDS011;21997;47.118;15.346;2022-08-21T10:46:45;0.80;;;0.67;;
35897;SDS011;21997;47.118;15.346;2022-08-21T10:56:27;1.13;;;0.57;;
35897;SDS011;21997;47.118;15.346;2022-08-21T11:01:24;1.00;;;0.60;;
35897;SDS011;21997;47.118;15.346;2022-08-21T11:03:59;1.93;;;0.50;;
35897;SDS011;21997;47.118;15.346;2022-08-21T11:06:51;1.03;;;0.93;;
35897;SDS011;21997;47.118;15.346;2022-08-21T11:09:49;1.00;;;0.80;;
35897;SDS011;21997;47.118;15.346;2022-08-21T11:12:29;2.63;;;0.63;;
35897;SDS011;21997;47.118;15.346;2022-08-21T11:27:08;0.40;;;0.40;;
35897;SDS011;21997;47.118;15.346;2022-08-21T11:29:44;3.23;;;0.47;;
35897;SDS011;21997;47.118;15.346;2022-08-21T11:35:19;0.53;;;0.40;;
35897;SDS011;21997;47.118;15.346;2022-08-21T11:41:34;3.13;;;0.50;;
35897;SDS011;21997;47.118;15.346;2022-08-21T11:50:18;0.37;;;0.30;;
35897;SDS011;21997;47.118;15.346;2022-08-21T11:52:50;0.87;;;0.60;;
35897;SDS011;21997;47.118;15.346;2022-08-21T11:55:32;0.53;;;0.20;;
35897;SDS011;21997;47.118;15.346;2022-08-21T11:58:08;0.20;;;0.20;;
35897;SDS011;21997;47.118;15.346;2022-08-21T12:00:52;0.20;;;0.20;;
35897;SDS011;21997;47.118;15.346;2022-08-21T12:03:24;0.30;;;0.30;;
35897;SDS011;21997;47.118;15.346;2022-08-21T12:05:56;0.40;;;0.30;;
35897;SDS011;21997;47.118;15.346;2022-08-21T12:08:31;0.20;;;0.20;;
35897;SDS011;21997;47.118;15.346;2022-08-21T12:11:05;0.30;;;0.30;;
35897;SDS011;21997;47.118;15.346;2022-08-21T12:13:33;0.20;;;0.20;;
35897;SDS011;21997;47.118;15.346;2022-08-21T12:16:44;0.97;;;0.40;;
35897;SDS011;21997;47.118;15.346;2022-08-21T12:19:04;0.23;;;0.23;;
35897;SDS011;21997;47.118;15.346;2022-08-21T12:21:33;0.20;;;0.20;;
35897;SDS011;21997;47.118;15.346;2022-08-21T12:26:53;0.20;;;0.20;;
35897;SDS011;21997;47.118;15.346;2022-08-21T12:31:56;0.33;;;0.20;;
35897;SDS011;21997;47.118;15.346;2022-08-21T12:34:37;2.33;;;0.30;;
35897;SDS011;21997;47.118;15.346;2022-08-21T12:37:09;0.30;;;0.30;;
35897;SDS011;21997;47.118;15.346;2022-08-21T12:40:00;0.57;;;0.20;;
35897;SDS011;21997;47.118;15.346;2022-08-21T12:42:44;0.87;;;0.30;;
35897;SDS011;21997;47.118;15.346;2022-08-21T12:45:29;0.37;;;0.30;;
35897;SDS011;21997;47.118;15.346;2022-08-21T12:51:15;0.20;;;0.20;;
35897;SDS011;21997;47.118;15.346;2022-08-21T12:54:04;0.90;;;0.50;;
35897;SDS011;21997;47.118;15.346;2022-08-21T12:56:55;0.70;;;0.30;;
35897;SDS011;21997;47.118;15.346;2022-08-21T12:59:40;0.40;;;0.30;;
35897;SDS011;21997;47.118;15.346;2022-08-21T13:02:46;0.53;;;0.20;;
35897;SDS011;21997;47.118;15.346;2022-08-21T13:05:25;0.50;;;0.20;;
35897;SDS011;21997;47.118;15.346;2022-08-21T13:08:09;0.20;;;0.20;;
35897;SDS011;21997;47.118;15.346;2022-08-21T13:10:36;0.27;;;0.20;;
35897;SDS011;21997;47.118;15.346;2022-08-21T13:17:25;0.20;;;0.20;;
35897;SDS011;21997;47.118;15.346;2022-08-21T13:37:06;0.30;;;0.30;;
35897;SDS011;21997;47.118;15.346;2022-08-21T13:39:51;0.30;;;0.30;;
35897;SDS011;21997;47.118;15.346;2022-08-21T13:42:20;0.87;;;0.23;;
35897;SDS011;21997;47.118;15.346;2022-08-21T13:44:55;2.37;;;0.70;;
35897;SDS011;21997;47.118;15.346;2022-08-21T13:47:29;0.30;;;0.30;;
35897;SDS011;21997;47.118;15.346;2022-08-21T13:49:57;0.30;;;0.30;;
35897;SDS011;21997;47.118;15.346;2022-08-21T13:52:28;0.30;;;0.30;;
35897;SDS011;21997;47.118;15.346;2022-08-21T13:54:58;0.70;;;0.30;;
35897;SDS011;21997;47.118;15.346;2022-08-21T13:57:30;1.87;;;0.40;;
35897;SDS011;21997;47.118;15.346;2022-08-21T14:00:25;0.40;;;0.40;;
35897;SDS011;21997;47.118;15.346;2022-08-21T14:02:52;2.23;;;0.50;;
35897;SDS011;21997;47.118;15.346;2022-08-21T14:05:24;0.50;;;0.40;;
35897;SDS011;21997;47.118;15.346;2022-08-21T14:08:23;1.17;;;0.60;;
35897;SDS011;21997;47.118;15.346;2022-08-21T14:11:02;2.50;;;0.40;;
35897;SDS011;21997;47.118;15.346;2022-08-21T14:13:33;0.80;;;0.60;;
35897;SDS011;21997;47.118;15.346;2022-08-21T14:16:10;0.50;;;0.50;;
35897;SDS011;21997;47.118;15.346;2022-08-21T14:21:28;0.30;;;0.30;;
35897;SDS011;21997;47.118;15.346;2022-08-21T14:24:28;0.40;;;0.40;;
35897;SDS011;21997;47.118;15.346;2022-08-21T14:27:07;0.57;;;0.57;;
35897;SDS011;21997;47.118;15.346;2022-08-21T14:29:41;0.60;;;0.50;;
35897;SDS011;21997;47.118;15.346;2022-08-21T14:32:15;1.00;;;0.60;;
35897;SDS011;21997;47.118;15.346;2022-08-21T14:34:44;0.70;;;0.53;;
35897;SDS011;21997;47.118;15.346;2022-08-21T14:37:10;2.77;;;0.70;;
35897;SDS011;21997;47.118;15.346;2022-08-21T14:39:41;0.83;;;0.60;;
35897;SDS011;21997;47.118;15.346;2022-08-21T14:42:11;1.57;;;0.70;;
35897;SDS011;21997;47.118;15.346;2022-08-21T14:44:38;1.83;;;0.70;;
35897;SDS011;21997;47.118;15.346;2022-08-21T14:47:04;1.50;;;0.90;;
35897;SDS011;21997;47.118;15.346;2022-08-21T14:49:32;0.63;;;0.63;;
35897;SDS011;21997;47.118;15.346;2022-08-21T14:51:57;1.73;;;0.60;;
35897;SDS011;21997;47.118;15.346;2022-08-21T14:54:29;1.10;;;1.00;;
35897;SDS011;21997;47.118;15.346;2022-08-21T14:56:56;1.00;;;0.80;;
35897;SDS011;21997;47.118;15.346;2022-08-21T14:59:34;0.70;;;0.60;;
35897;SDS011;21997;47.118;15.346;2022-08-21T15:02:01;0.80;;;0.80;;
35897;SDS011;21997;47.118;15.346;2022-08-21T15:04:29;1.10;;;1.00;;
35897;SDS011;21997;47.118;15.346;2022-08-21T15:06:54;1.00;;;1.00;;
35897;SDS011;21997;47.118;15.346;2022-08-21T15:09:23;1.00;;;0.90;;
35897;SDS011;21997;47.118;15.346;2022-08-21T15:11:51;0.80;;;0.80;;
35897;SDS011;21997;47.118;15.346;2022-08-21T15:14:25;1.50;;;1.13;;
35897;SDS011;21997;47.118;15.346;2022-08-21T15:16:58;1.10;;;1.00;;
35897;SDS011;21997;47.118;15.346;2022-08-21T15:19:24;1.00;;;0.90;;
35897;SDS011;21997;47.118;15.346;2022-08-21T15:21:49;1.63;;;1.10;;
35897;SDS011;21997;47.118;15.346;2022-08-21T15:24:15;1.93;;;1.67;;
35897;SDS011;21997;47.118;15.346;2022-08-21T15:26:40;1.10;;;1.00;;
35897;SDS011;21997;47.118;15.346;2022-08-21T15:29:07;3.43;;;1.40;;
35897;SDS011;21997;47.118;15.346;2022-08-21T15:31:33;0.87;;;0.87;;
35897;SDS011;21997;47.118;15.346;2022-08-21T15:33:59;0.80;;;0.80;;
35897;SDS011;21997;47.118;15.346;2022-08-21T15:36:25;1.50;;;1.30;;
35897;SDS011;21997;47.118;15.346;2022-08-21T15:38:51;1.30;;;1.20;;
35897;SDS011;21997;47.118;15.346;2022-08-21T15:41:16;0.80;;;0.80;;
35897;SDS011;21997;47.118;15.346;2022-08-21T15:43:48;1.87;;;1.20;;
35897;SDS011;21997;47.118;15.346;2022-08-21T15:46:14;1.17;;;1.07;;
35897;SDS011;21997;47.118;15.346;2022-08-21T15:48:41;1.20;;;1.10;;
35897;SDS011;21997;47.118;15.346;2022-08-21T15:51:07;2.30;;;1.20;;
35897;SDS011;21997;47.118;15.346;2022-08-21T15:53:34;1.10;;;1.00;;
35897;SDS011;21997;47.118;15.346;2022-08-21T15:56:03;3.07;;;1.20;;
35897;SDS011;21997;47.118;15.346;2022-08-21T15:58:46;1.17;;;1.07;;
35897;SDS011;21997;47.118;15.346;2022-08-21T16:01:12;1.70;;;1.47;;
35897;SDS011;21997;47.118;15.346;2022-08-21T16:03:38;5.43;;;1.40;;
35897;SDS011;21997;47.118;15.346;2022-08-21T16:06:03;1.93;;;1.47;;
35897;SDS011;21997;47.118;15.346;2022-08-21T16:08:31;3.23;;;1.70;;
35897;SDS011;21997;47.118;15.346;2022-08-21T16:10:56;1.43;;;1.20;;
35897;SDS011;21997;47.118;15.346;2022-08-21T16:13:25;4.03;;;1.80;;
35897;SDS011;21997;47.118;15.346;2022-08-21T16:15:54;1.43;;;1.20;;
35897;SDS011;21997;47.118;15.346;2022-08-21T16:18:20;1.30;;;1.20;;
35897;SDS011;21997;47.118;15.346;2022-08-21T16:20:47;1.20;;;1.10;;
35897;SDS011;21997;47.118;15.346;2022-08-21T16:23:13;1.30;;;1.20;;
35897;SDS011;21997;47.118;15.346;2022-08-21T16:25:38;2.20;;;1.13;;
35897;SDS011;21997;47.118;15.346;2022-08-21T16:28:04;3.47;;;1.27;;
35897;SDS011;21997;47.118;15.346;2022-08-21T16:30:31;1.20;;;1.10;;
35897;SDS011;21997;47.118;15.346;2022-08-21T16:32:58;1.30;;;1.20;;
35897;SDS011;21997;47.118;15.346;2022-08-21T16:35:24;1.33;;;1.23;;
35897;SDS011;21997;47.118;15.346;2022-08-21T16:37:53;1.43;;;1.33;;
35897;SDS011;21997;47.118;15.346;2022-08-21T16:40:19;6.47;;;1.40;;
35897;SDS011;21997;47.118;15.346;2022-08-21T16:42:47;3.13;;;1.40;;
35897;SDS011;21997;47.118;15.346;2022-08-21T16:45:13;2.30;;;1.30;;
35897;SDS011;21997;47.118;15.346;2022-08-21T16:47:40;2.00;;;1.10;;
35897;SDS011;21997;47.118;15.346;2022-08-21T16:50:07;1.77;;;1.17;;
35897;SDS011;21997;47.118;15.346;2022-08-21T16:52:33;1.43;;;1.33;;
35897;SDS011;21997;47.118;15.346;2022-08-21T16:57:52;1.03;;;0.93;;
35897;SDS011;21997;47.118;15.346;2022-08-21T17:00:21;2.10;;;1.20;;
35897;SDS011;21997;47.118;15.346;2022-08-21T17:02:50;1.60;;;1.30;;
35897;SDS011;21997;47.118;15.346;2022-08-21T17:05:35;1.40;;;1.30;;
35897;SDS011;21997;47.118;15.346;2022-08-21T17:08:25;2.60;;;1.10;;
35897;SDS011;21997;47.118;15.346;2022-08-21T17:10:54;3.00;;;1.93;;
35897;SDS011;21997;47.118;15.346;2022-08-21T17:13:19;1.60;;;1.50;;
35897;SDS011;21997;47.118;15.346;2022-08-21T17:15:45;3.00;;;2.43;;
35897;SDS011;21997;47.118;15.346;2022-08-21T17:18:15;2.13;;;1.93;;
35897;SDS011;21997;47.118;15.346;2022-08-21T17:20:41;2.53;;;1.83;;
35897;SDS011;21997;47.118;15.346;2022-08-21T17:23:09;2.30;;;1.50;;
35897;SDS011;21997;47.118;15.346;2022-08-21T17:25:39;1.90;;;1.50;;
35897;SDS011;21997;47.118;15.346;2022-08-21T17:28:10;1.80;;;1.43;;
35897;SDS011;21997;47.118;15.346;2022-08-21T17:33:26;1.53;;;1.27;;
35897;SDS011;21997;47.118;15.346;2022-08-21T17:36:09;1.87;;;1.60;;
35897;SDS011;21997;47.118;15.346;2022-08-21T17:38:37;2.63;;;1.50;;
35897;SDS011;21997;47.118;15.346;2022-08-21T17:41:10;1.30;;;1.20;;
35897;SDS011;21997;47.118;15.346;2022-08-21T17:43:37;2.23;;;1.37;;
35897;SDS011;21997;47.118;15.346;2022-08-21T17:46:03;1.40;;;1.30;;
35897;SDS011;21997;47.118;15.346;2022-08-21T17:48:29;2.10;;;1.40;;
35897;SDS011;21997;47.118;15.346;2022-08-21T17:50:54;1.50;;;1.40;;
35897;SDS011;21997;47.118;15.346;2022-08-21T17:53:19;2.10;;;1.80;;
35897;SDS011;21997;47.118;15.346;2022-08-21T17:55:46;2.30;;;2.10;;
35897;SDS011;21997;47.118;15.346;2022-08-21T17:58:12;2.40;;;1.70;;
35897;SDS011;21997;47.118;15.346;2022-08-21T18:00:38;3.97;;;2.20;;
35897;SDS011;21997;47.118;15.346;2022-08-21T18:03:05;1.40;;;1.30;;
35897;SDS011;21997;47.118;15.346;2022-08-21T18:05:42;2.20;;;2.00;;
35897;SDS011;21997;47.118;15.346;2022-08-21T18:08:08;1.67;;;1.57;;
35897;SDS011;21997;47.118;15.346;2022-08-21T18:10:34;2.27;;;1.63;;
35897;SDS011;21997;47.118;15.346;2022-08-21T18:13:02;2.17;;;1.60;;
35897;SDS011;21997;47.118;15.346;2022-08-21T18:15:28;1.97;;;1.67;;
35897;SDS011;21997;47.118;15.346;2022-08-21T18:17:54;1.50;;;1.40;;
35897;SDS011;21997;47.118;15.346;2022-08-21T18:20:20;1.50;;;1.40;;
35897;SDS011;21997;47.118;15.346;2022-08-21T18:22:47;1.80;;;1.43;;
35897;SDS011;21997;47.118;15.346;2022-08-21T18:25:13;2.70;;;1.57;;
35897;SDS011;21997;47.118;15.346;2022-08-21T18:27:39;7.27;;;1.97;;
35897;SDS011;21997;47.118;15.346;2022-08-21T18:30:06;1.60;;;1.50;;
35897;SDS011;21997;47.118;15.346;2022-08-21T18:32:33;2.30;;;1.90;;
35897;SDS011;21997;47.118;15.346;2022-08-21T18:34:59;5.67;;;1.70;;